This is the latest recevied weather packets stored in our database for station/object YF9UAG-15. If no packets are shown the sender has not sent any weather packets the latest 1 day(s).
| Time | Temp. | Humidity | Pressure | Rain* | Wind** | Luminosity | Snow |
|---|---|---|---|---|---|---|---|
| 1778086970 | 28.89° C | 100% | 1006.6 hPa | - | - | - | - |
| 1778086489 | 27.22° C | 100% | 1006.4 hPa | - | - | - | - |
| 1778085640 | 28.89° C | 100% | 1006.6 hPa | - | - | - | - |
| 1778085519 | 28.89° C | 100% | 1006.5 hPa | - | - | - | - |
| 1778085398 | 28.89° C | 100% | 1006.5 hPa | - | - | - | - |
| 1778085277 | 28.89° C | 100% | 1006.5 hPa | - | - | - | - |
| 1778085156 | 28.89° C | 100% | 1006.5 hPa | - | - | - | - |
| 1778084914 | 28.33° C | 100% | 1006.4 hPa | - | - | - | - |
| 1778084793 | 28.33° C | 100% | 1006.5 hPa | - | - | - | - |
| 1778084672 | 28.33° C | 100% | 1006.5 hPa | - | - | - | - |
| 1778083584 | 28.89° C | 100% | 1006.6 hPa | - | - | - | - |
| 1778083463 | 28.89° C | 100% | 1006.6 hPa | - | - | - | - |
| 1778083342 | 28.89° C | 100% | 1006.6 hPa | - | - | - | - |
| 1778083221 | 28.33° C | 100% | 1006.6 hPa | - | - | - | - |
| 1778083100 | 28.33° C | 100% | 1006.5 hPa | - | - | - | - |
| 1778082979 | 28.89° C | 100% | 1006.6 hPa | - | - | - | - |
| 1778082858 | 28.33° C | 100% | 1006.6 hPa | - | - | - | - |
| 1778082737 | 28.89° C | 100% | 1006.8 hPa | - | - | - | - |
| 1778081528 | 28.89° C | 100% | 1007 hPa | - | - | - | - |
| 1778081286 | 28.89° C | 100% | 1007 hPa | - | - | - | - |
| 1778081165 | 28.89° C | 100% | 1007 hPa | - | - | - | - |
| 1778081044 | 29.44° C | 100% | 1007.1 hPa | - | - | - | - |
| 1778080560 | 28.89° C | 100% | 1007.1 hPa | - | - | - | - |
| 1778079472 | 28.89° C | 100% | 1007.3 hPa | - | - | - | - |
| 1778079351 | 29.44° C | 100% | 1007.2 hPa | - | - | - | - |
* Rain since midnight (hover to see other rain measurements)
** Current wind speed in m/s (hover to see current wind gust speed)